createdAt,value
2023-02-23T00:02:15.723Z,20.10
2023-02-23T00:04:44.196Z,20.11
2023-02-23T00:07:12.961Z,20.14
2023-02-23T00:09:41.394Z,20.15
2023-02-23T00:12:09.838Z,20.16
2023-02-23T00:14:39.119Z,20.21
2023-02-23T00:17:15.429Z,20.22
2023-02-23T00:19:47.064Z,20.26
2023-02-23T00:22:15.457Z,20.29
2023-02-23T00:24:43.816Z,20.32
2023-02-23T00:27:18.700Z,20.37
2023-02-23T00:29:50.252Z,20.42
2023-02-23T00:32:22.328Z,20.48
2023-02-23T00:34:51.471Z,20.53
2023-02-23T00:37:20.479Z,20.59
2023-02-23T00:39:48.771Z,20.65
2023-02-23T00:42:17.151Z,20.72
2023-02-23T00:44:45.460Z,20.77
2023-02-23T00:47:13.886Z,20.83
2023-02-23T00:49:42.753Z,20.89
2023-02-23T00:52:11.060Z,20.95
2023-02-23T00:54:39.338Z,21.01
2023-02-23T00:57:07.622Z,21.04
2023-02-23T00:59:35.996Z,21.10
2023-02-23T01:02:04.481Z,21.15
2023-02-23T01:04:32.813Z,21.20
2023-02-23T01:07:01.140Z,21.24
2023-02-23T01:09:29.513Z,21.31
2023-02-23T01:12:02.470Z,21.36
2023-02-23T01:14:32.081Z,21.43
2023-02-23T01:17:01.237Z,21.47
2023-02-23T01:19:29.619Z,21.54
2023-02-23T01:21:57.961Z,21.59
2023-02-23T01:24:26.334Z,21.66
2023-02-23T01:26:54.790Z,21.73
2023-02-23T01:29:23.112Z,21.79
2023-02-23T01:31:54.283Z,21.85
2023-02-23T01:34:22.988Z,21.93
2023-02-23T01:36:52.313Z,22.01
2023-02-23T01:39:22.049Z,22.07
2023-02-23T01:41:52.758Z,22.12
2023-02-23T01:44:21.028Z,22.21
2023-02-23T01:46:51.134Z,22.27
2023-02-23T01:49:26.457Z,22.35
2023-02-23T01:52:06.058Z,22.40
2023-02-23T01:54:40.005Z,22.46
2023-02-23T01:57:12.490Z,22.51
2023-02-23T01:59:44.201Z,22.57
2023-02-23T02:02:14.264Z,22.62
2023-02-23T02:04:47.317Z,22.68
2023-02-23T02:07:28.013Z,22.72
2023-02-23T02:10:14.627Z,22.77
2023-02-23T02:12:46.371Z,22.86
2023-02-23T02:15:19.060Z,22.91
2023-02-23T02:18:10.067Z,22.99
2023-02-23T02:20:59.309Z,23.06
2023-02-23T02:23:54.862Z,23.16
2023-02-23T02:26:30.451Z,23.24
2023-02-23T02:29:16.744Z,23.30
2023-02-23T02:32:03.820Z,23.36
2023-02-23T02:35:08.395Z,23.44
2023-02-23T02:38:02.585Z,23.52
2023-02-23T02:41:10.117Z,23.58
2023-02-23T02:43:43.857Z,23.62
2023-02-23T02:46:24.748Z,23.64
2023-02-23T02:49:04.967Z,23.69
2023-02-23T02:51:37.658Z,23.75
2023-02-23T02:54:39.407Z,23.82
2023-02-23T02:57:09.002Z,23.87
2023-02-23T03:00:08.564Z,23.96
2023-02-23T03:02:58.998Z,24.06
2023-02-23T03:05:53.871Z,24.16
2023-02-23T03:08:53.144Z,24.27
2023-02-23T03:11:39.707Z,24.35
2023-02-23T03:14:26.526Z,24.45
2023-02-23T03:17:12.840Z,24.51
2023-02-23T03:20:20.391Z,24.57
2023-02-23T03:23:37.690Z,24.66
2023-02-23T03:26:57.868Z,24.75
2023-02-23T03:30:03.187Z,24.82
2023-02-23T03:33:13.174Z,24.90
2023-02-23T03:36:23.210Z,24.99
2023-02-23T03:39:19.180Z,25.06
2023-02-23T03:42:09.791Z,25.13
2023-02-23T03:45:01.890Z,25.19
2023-02-23T03:47:54.466Z,25.26
2023-02-23T03:50:48.945Z,25.31
2023-02-23T03:53:41.067Z,25.35
2023-02-23T03:56:29.640Z,25.40
2023-02-23T03:59:19.766Z,25.51
2023-02-23T04:02:07.949Z,25.61
2023-02-23T04:04:56.156Z,25.72
2023-02-23T04:07:43.510Z,25.83
2023-02-23T04:10:31.643Z,25.91
2023-02-23T04:13:17.388Z,25.99
2023-02-23T04:16:02.450Z,26.07
2023-02-23T04:18:34.402Z,26.13
2023-02-23T04:21:03.896Z,26.19
2023-02-23T04:23:32.894Z,26.23
2023-02-23T04:26:01.268Z,26.27
2023-02-23T04:28:30.426Z,26.33
2023-02-23T04:30:58.805Z,26.38
2023-02-23T04:33:28.158Z,26.45
2023-02-23T04:35:56.889Z,26.53
2023-02-23T04:38:25.638Z,26.62
2023-02-23T04:40:54.055Z,26.68
2023-02-23T04:43:22.399Z,26.75
2023-02-23T04:45:50.733Z,26.82
2023-02-23T04:48:19.048Z,26.87
2023-02-23T04:50:47.342Z,26.93
2023-02-23T04:53:15.750Z,26.99
2023-02-23T04:55:44.795Z,27.04
2023-02-23T04:58:15.004Z,27.08
2023-02-23T05:00:43.613Z,27.13
2023-02-23T05:03:13.162Z,27.17
2023-02-23T05:05:41.590Z,27.20
2023-02-23T05:08:10.207Z,27.25
2023-02-23T05:10:40.252Z,27.31
2023-02-23T05:13:09.010Z,27.34
2023-02-23T05:15:38.264Z,27.39
2023-02-23T05:18:06.722Z,27.45
2023-02-23T05:20:35.176Z,27.48
2023-02-23T05:23:03.680Z,27.49
2023-02-23T05:25:31.996Z,27.52
2023-02-23T05:28:00.623Z,27.58
2023-02-23T05:30:28.980Z,27.65
2023-02-23T05:32:57.326Z,27.73
2023-02-23T05:35:25.787Z,27.81
2023-02-23T05:37:54.174Z,27.87
2023-02-23T05:40:22.505Z,27.92
2023-02-23T05:42:50.889Z,27.98
2023-02-23T05:45:19.293Z,28.02
2023-02-23T05:47:47.595Z,28.07
2023-02-23T05:50:15.892Z,28.12
2023-02-23T05:52:44.238Z,28.17
2023-02-23T05:55:13.728Z,28.20
2023-02-23T05:57:42.320Z,28.24
2023-02-23T06:00:11.632Z,28.27
2023-02-23T06:02:40.936Z,28.31
2023-02-23T06:05:11.728Z,28.34
2023-02-23T06:07:40.526Z,28.37
2023-02-23T06:10:09.703Z,28.41
2023-02-23T06:12:38.048Z,28.47
2023-02-23T06:15:06.940Z,28.51
2023-02-23T06:17:35.302Z,28.56
2023-02-23T06:20:05.712Z,28.56
2023-02-23T06:22:34.127Z,28.60
2023-02-23T06:25:06.587Z,28.65
2023-02-23T06:27:34.877Z,28.70
2023-02-23T06:30:03.161Z,28.76
2023-02-23T06:32:31.535Z,28.81
2023-02-23T06:35:00.649Z,28.86
2023-02-23T06:37:29.942Z,28.90
2023-02-23T06:39:58.428Z,28.96
2023-02-23T06:42:26.918Z,29.01
2023-02-23T06:44:55.233Z,29.03
2023-02-23T06:47:23.780Z,29.06
2023-02-23T06:49:52.082Z,29.08
2023-02-23T06:52:20.376Z,29.11
2023-02-23T06:54:50.911Z,29.13
2023-02-23T06:57:20.344Z,29.18
2023-02-23T06:59:48.740Z,29.20
2023-02-23T07:02:17.163Z,29.23
2023-02-23T07:04:45.553Z,29.24
2023-02-23T07:07:14.119Z,29.24
2023-02-23T07:09:43.866Z,29.27
2023-02-23T07:12:12.263Z,29.27
2023-02-23T07:14:41.066Z,29.28
2023-02-23T07:17:11.552Z,29.31
2023-02-23T07:19:41.021Z,29.33
2023-02-23T07:22:09.365Z,29.36
2023-02-23T07:24:38.463Z,29.41
2023-02-23T07:27:06.780Z,29.43
2023-02-23T07:29:35.171Z,29.46
2023-02-23T07:32:03.603Z,29.47
2023-02-23T07:34:31.995Z,29.48
2023-02-23T07:37:00.318Z,29.46
2023-02-23T07:39:28.766Z,29.49
2023-02-23T07:41:57.082Z,29.48
2023-02-23T07:44:25.465Z,29.47
2023-02-23T07:46:54.139Z,29.48
2023-02-23T07:49:22.444Z,29.48
2023-02-23T07:51:50.781Z,29.50
2023-02-23T07:54:19.116Z,29.52
2023-02-23T07:56:47.447Z,29.54
2023-02-23T07:59:16.263Z,29.54
2023-02-23T08:01:44.712Z,29.55
2023-02-23T08:04:13.087Z,29.53
2023-02-23T08:06:41.417Z,29.57
2023-02-23T08:09:09.939Z,29.57
2023-02-23T08:11:38.264Z,29.56
2023-02-23T08:14:06.725Z,29.58
2023-02-23T08:16:35.403Z,29.59
2023-02-23T08:19:03.897Z,29.60
2023-02-23T08:21:32.852Z,29.61
2023-02-23T08:24:01.472Z,29.59
2023-02-23T08:26:29.837Z,29.61
2023-02-23T08:28:58.262Z,29.60
2023-02-23T08:31:28.481Z,29.63
2023-02-23T08:33:57.049Z,29.62
2023-02-23T08:36:25.451Z,29.60
2023-02-23T08:38:55.117Z,29.60
2023-02-23T08:41:23.500Z,29.62
2023-02-23T08:43:51.939Z,29.62
2023-02-23T08:46:21.482Z,29.64
2023-02-23T08:48:49.920Z,29.64
2023-02-23T08:51:18.746Z,29.63
2023-02-23T08:53:47.527Z,29.62
2023-02-23T08:56:16.441Z,29.59
2023-02-23T08:58:44.879Z,29.60
2023-02-23T09:01:22.802Z,29.61
2023-02-23T09:03:51.636Z,29.61
2023-02-23T09:06:23.047Z,29.61
2023-02-23T09:08:51.473Z,29.60
2023-02-23T09:11:20.102Z,29.60
2023-02-23T09:13:48.723Z,29.59
2023-02-23T09:16:17.508Z,29.60
2023-02-23T09:18:46.172Z,29.62
2023-02-23T09:21:21.968Z,29.62
2023-02-23T09:23:52.212Z,29.62
2023-02-23T09:26:21.982Z,29.61
2023-02-23T09:28:50.849Z,29.65
2023-02-23T09:31:22.535Z,29.65
2023-02-23T09:33:52.589Z,29.62
2023-02-23T09:36:26.585Z,29.61
2023-02-23T09:38:58.100Z,29.60
2023-02-23T09:42:01.640Z,29.58
2023-02-23T09:44:44.169Z,29.56
2023-02-23T09:47:27.310Z,29.54
2023-02-23T09:49:57.401Z,29.49
2023-02-23T09:52:43.073Z,29.46
2023-02-23T09:55:14.618Z,29.41
2023-02-23T09:57:47.204Z,29.37
2023-02-23T10:00:25.090Z,29.32
2023-02-23T10:03:34.711Z,29.26
2023-02-23T10:06:10.210Z,29.20
2023-02-23T10:09:12.672Z,29.14
2023-02-23T10:12:06.761Z,29.08
2023-02-23T10:14:51.969Z,29.04
2023-02-23T10:17:35.230Z,28.97
2023-02-23T10:20:21.127Z,28.90
2023-02-23T10:22:51.334Z,28.84
2023-02-23T10:25:26.946Z,28.78
2023-02-23T10:27:58.484Z,28.73
2023-02-23T10:30:30.210Z,28.68
2023-02-23T10:33:28.299Z,28.62
2023-02-23T10:36:12.854Z,28.55
2023-02-23T10:38:41.869Z,28.48
2023-02-23T10:41:14.719Z,28.42
2023-02-23T10:43:43.677Z,28.36
2023-02-23T10:46:22.713Z,28.29
2023-02-23T10:48:53.893Z,28.23
2023-02-23T10:51:29.526Z,28.17
2023-02-23T10:54:07.484Z,28.10
2023-02-23T10:56:47.631Z,28.03
2023-02-23T10:59:22.335Z,27.97
2023-02-23T11:02:01.560Z,27.91
2023-02-23T11:04:35.682Z,27.82
2023-02-23T11:07:17.814Z,27.74
2023-02-23T11:09:48.141Z,27.67
2023-02-23T11:12:27.018Z,27.59
2023-02-23T11:14:58.057Z,27.50
2023-02-23T11:17:38.776Z,27.39
2023-02-23T11:20:19.038Z,27.31
2023-02-23T11:22:47.697Z,27.24
2023-02-23T11:25:25.527Z,27.17
2023-02-23T11:27:54.854Z,27.09
2023-02-23T11:30:26.321Z,27.02
2023-02-23T11:33:03.473Z,26.96
2023-02-23T11:35:33.224Z,26.90
2023-02-23T11:38:15.474Z,26.83
2023-02-23T11:40:43.805Z,26.76
2023-02-23T11:43:21.825Z,26.69
2023-02-23T11:45:53.236Z,26.63
2023-02-23T11:48:39.817Z,26.55
2023-02-23T11:51:08.956Z,26.50
2023-02-23T11:53:41.387Z,26.44
2023-02-23T11:56:13.413Z,26.36
2023-02-23T11:58:45.474Z,26.30
2023-02-23T12:01:18.025Z,26.23
2023-02-23T12:03:54.037Z,26.16
2023-02-23T12:06:43.563Z,26.11
2023-02-23T12:09:33.919Z,26.05
2023-02-23T12:12:15.365Z,25.98
2023-02-23T12:14:52.242Z,25.92
2023-02-23T12:17:36.529Z,25.85
2023-02-23T12:20:30.402Z,25.79
2023-02-23T12:23:09.280Z,25.72
2023-02-23T12:25:54.054Z,25.67
2023-02-23T12:28:44.637Z,25.62
2023-02-23T12:31:41.460Z,25.56
2023-02-23T12:34:28.629Z,25.52
2023-02-23T12:37:10.444Z,25.48
2023-02-23T12:39:44.518Z,25.43
2023-02-23T12:42:29.918Z,25.38
2023-02-23T12:45:05.116Z,25.34
2023-02-23T12:48:01.299Z,25.30
2023-02-23T12:50:31.915Z,25.27
2023-02-23T12:53:09.118Z,25.23
2023-02-23T12:55:49.631Z,25.20
2023-02-23T12:58:29.818Z,25.17
2023-02-23T13:01:05.258Z,25.14
2023-02-23T13:03:42.328Z,25.12
2023-02-23T13:06:21.611Z,25.09
2023-02-23T13:09:10.023Z,25.07
2023-02-23T13:12:12.354Z,25.06
2023-02-23T13:14:57.708Z,25.04
2023-02-23T13:17:28.865Z,25.02
2023-02-23T13:20:02.763Z,25.00
2023-02-23T13:22:47.139Z,24.98
2023-02-23T13:25:42.733Z,24.95
2023-02-23T13:28:38.298Z,24.93
2023-02-23T13:31:13.383Z,24.92
2023-02-23T13:33:44.290Z,24.89
2023-02-23T13:36:13.804Z,24.87
2023-02-23T13:38:47.640Z,24.82
2023-02-23T13:41:35.056Z,24.77
2023-02-23T13:44:21.771Z,24.71
2023-02-23T13:47:07.898Z,24.65
2023-02-23T13:49:55.980Z,24.60
2023-02-23T13:52:42.509Z,24.55
2023-02-23T13:55:40.057Z,24.51
2023-02-23T13:58:19.395Z,24.45
2023-02-23T14:01:04.289Z,24.39
2023-02-23T14:03:41.057Z,24.33
2023-02-23T14:06:13.788Z,24.27
2023-02-23T14:08:46.281Z,24.21
2023-02-23T14:11:31.080Z,24.15
2023-02-23T14:14:03.231Z,24.11
2023-02-23T14:16:32.162Z,24.07
2023-02-23T14:19:10.840Z,24.03
2023-02-23T14:21:51.003Z,23.98
2023-02-23T14:24:21.278Z,23.94
2023-02-23T14:27:27.822Z,23.91
2023-02-23T14:30:11.931Z,23.88
2023-02-23T14:32:46.728Z,23.85
2023-02-23T14:35:33.778Z,23.81
2023-02-23T14:38:17.540Z,23.77
2023-02-23T14:40:50.241Z,23.74
2023-02-23T14:43:36.942Z,23.69
2023-02-23T14:46:09.845Z,23.65
2023-02-23T14:48:59.518Z,23.61
2023-02-23T14:51:45.833Z,23.57
2023-02-23T14:54:24.528Z,23.54
2023-02-23T14:56:56.112Z,23.50
2023-02-23T14:59:28.335Z,23.47
2023-02-23T15:02:00.858Z,23.44
2023-02-23T15:04:31.426Z,23.41
2023-02-23T15:07:03.165Z,23.40
2023-02-23T15:09:44.258Z,23.37
2023-02-23T15:12:21.406Z,23.36
2023-02-23T15:14:51.230Z,23.31
2023-02-23T15:17:25.381Z,23.28
2023-02-23T15:20:14.800Z,23.26
2023-02-23T15:22:52.230Z,23.23
2023-02-23T15:25:24.835Z,23.22
2023-02-23T15:27:54.062Z,23.21
2023-02-23T15:30:33.318Z,23.18
2023-02-23T15:33:13.348Z,23.18
2023-02-23T15:35:53.713Z,23.17
2023-02-23T15:38:44.138Z,23.17
2023-02-23T15:41:31.824Z,23.17
2023-02-23T15:44:29.676Z,23.19
2023-02-23T15:47:07.779Z,23.21
2023-02-23T15:49:41.188Z,23.23
2023-02-23T15:52:21.788Z,23.23
2023-02-23T15:55:02.479Z,23.24
2023-02-23T15:57:33.137Z,23.24
2023-02-23T16:00:11.268Z,23.22
2023-02-23T16:02:42.233Z,23.17
2023-02-23T16:05:21.371Z,23.13
2023-02-23T16:07:49.774Z,23.09
2023-02-23T16:10:25.935Z,23.06
2023-02-23T16:12:55.579Z,23.04
2023-02-23T16:15:28.773Z,22.99
2023-02-23T16:18:03.844Z,22.96
2023-02-23T16:20:42.326Z,22.93
2023-02-23T16:23:34.211Z,22.91
2023-02-23T16:26:13.822Z,22.87
2023-02-23T16:28:45.936Z,22.83
2023-02-23T16:31:21.364Z,22.79
2023-02-23T16:33:55.418Z,22.74
2023-02-23T16:36:26.202Z,22.69
2023-02-23T16:38:59.009Z,22.64
2023-02-23T16:41:31.418Z,22.61
2023-02-23T16:44:03.271Z,22.58
2023-02-23T16:46:38.638Z,22.56
2023-02-23T16:49:11.071Z,22.55
2023-02-23T16:51:39.409Z,22.52
2023-02-23T16:54:09.309Z,22.50
2023-02-23T16:56:40.811Z,22.48
2023-02-23T16:59:15.155Z,22.46
2023-02-23T17:01:43.548Z,22.43
2023-02-23T17:04:16.360Z,22.42
2023-02-23T17:06:53.733Z,22.39
2023-02-23T17:09:22.485Z,22.39
2023-02-23T17:11:50.829Z,22.36
2023-02-23T17:14:28.973Z,22.35
2023-02-23T17:16:57.371Z,22.32
2023-02-23T17:19:26.136Z,22.30
2023-02-23T17:21:54.568Z,22.28
2023-02-23T17:24:27.116Z,22.26
2023-02-23T17:26:56.444Z,22.25
2023-02-23T17:29:25.436Z,22.23
2023-02-23T17:31:54.066Z,22.22
2023-02-23T17:34:22.638Z,22.19
2023-02-23T17:36:50.959Z,22.20
2023-02-23T17:39:19.589Z,22.18
2023-02-23T17:41:48.334Z,22.15
2023-02-23T17:44:16.627Z,22.14
2023-02-23T17:46:45.576Z,22.12
2023-02-23T17:49:13.870Z,22.10
2023-02-23T17:51:42.192Z,22.09
2023-02-23T17:54:10.700Z,22.08
2023-02-23T17:56:39.274Z,22.08
2023-02-23T17:59:07.669Z,22.07
2023-02-23T18:01:35.974Z,22.07
2023-02-23T18:04:04.643Z,22.04
2023-02-23T18:06:33.000Z,22.05
2023-02-23T18:09:02.030Z,22.03
2023-02-23T18:11:30.364Z,22.03
2023-02-23T18:13:59.027Z,21.99
2023-02-23T18:16:27.938Z,21.97
2023-02-23T18:18:58.976Z,21.93
2023-02-23T18:21:28.167Z,21.90
2023-02-23T18:23:56.672Z,21.87
2023-02-23T18:26:25.830Z,21.85
2023-02-23T18:28:55.190Z,21.84
2023-02-23T18:31:26.602Z,21.82
2023-02-23T18:33:55.621Z,21.82
2023-02-23T18:36:30.302Z,21.80
2023-02-23T18:39:00.579Z,21.79
2023-02-23T18:41:31.750Z,21.77
2023-02-23T18:44:05.218Z,21.76
2023-02-23T18:46:33.917Z,21.74
2023-02-23T18:49:02.726Z,21.73
2023-02-23T18:51:31.488Z,21.74
2023-02-23T18:54:00.758Z,21.74
2023-02-23T18:56:29.859Z,21.75
2023-02-23T18:59:00.746Z,21.75
2023-02-23T19:01:32.651Z,21.74
2023-02-23T19:04:03.063Z,21.75
2023-02-23T19:06:32.214Z,21.74
2023-02-23T19:09:04.239Z,21.73
2023-02-23T19:11:34.731Z,21.72
2023-02-23T19:14:06.388Z,21.73
2023-02-23T19:16:36.328Z,21.71
2023-02-23T19:19:07.028Z,21.70
2023-02-23T19:21:35.650Z,21.70
2023-02-23T19:24:04.406Z,21.69
2023-02-23T19:26:34.748Z,21.67
2023-02-23T19:29:03.410Z,21.65
2023-02-23T19:31:31.951Z,21.65
2023-02-23T19:34:00.695Z,21.63
2023-02-23T19:36:34.785Z,21.63
2023-02-23T19:39:16.459Z,21.62
2023-02-23T19:41:46.250Z,21.62
2023-02-23T19:44:14.534Z,21.59
2023-02-23T19:46:43.859Z,21.59
2023-02-23T19:49:12.696Z,21.59
2023-02-23T19:51:41.048Z,21.59
2023-02-23T19:54:09.695Z,21.58
2023-02-23T19:56:39.017Z,21.57
2023-02-23T19:59:07.862Z,21.55
2023-02-23T20:01:37.049Z,21.52
2023-02-23T20:04:06.913Z,21.50
2023-02-23T20:06:41.944Z,21.49
2023-02-23T20:09:10.526Z,21.48
2023-02-23T20:11:38.983Z,21.48
2023-02-23T20:14:09.040Z,21.45
2023-02-23T20:16:37.759Z,21.44
2023-02-23T20:19:07.600Z,21.42
2023-02-23T20:21:37.614Z,21.40
2023-02-23T20:24:06.531Z,21.38
2023-02-23T20:26:37.922Z,21.38
2023-02-23T20:29:11.588Z,21.36
2023-02-23T20:31:42.839Z,21.34
2023-02-23T20:34:12.050Z,21.32
2023-02-23T20:36:40.952Z,21.32
2023-02-23T20:39:11.506Z,21.30
2023-02-23T20:41:44.915Z,21.28
2023-02-23T20:44:15.069Z,21.26
2023-02-23T20:46:45.537Z,21.26
2023-02-23T20:49:15.172Z,21.25
2023-02-23T20:51:45.733Z,21.23
2023-02-23T20:54:15.505Z,21.21
2023-02-23T20:56:44.953Z,21.19
2023-02-23T20:59:14.785Z,21.17
2023-02-23T21:01:45.240Z,21.15
2023-02-23T21:04:14.049Z,21.15
2023-02-23T21:06:43.080Z,21.14
2023-02-23T21:09:18.089Z,21.12
2023-02-23T21:11:47.352Z,21.11
2023-02-23T21:14:16.406Z,21.10
2023-02-23T21:16:47.957Z,21.09
2023-02-23T21:19:18.244Z,21.08
2023-02-23T21:21:49.754Z,21.08
2023-02-23T21:24:19.848Z,21.07
2023-02-23T21:26:48.900Z,21.08
2023-02-23T21:29:17.473Z,21.07
2023-02-23T21:31:47.744Z,21.06
2023-02-23T21:34:22.610Z,21.05
2023-02-23T21:36:52.263Z,21.04
2023-02-23T21:39:20.898Z,21.01
2023-02-23T21:41:49.418Z,21.01
2023-02-23T21:44:17.738Z,20.99
2023-02-23T21:46:46.063Z,20.96
2023-02-23T21:49:14.513Z,20.96
2023-02-23T21:51:42.889Z,20.92
2023-02-23T21:54:11.952Z,20.92
2023-02-23T21:56:40.333Z,20.91
2023-02-23T21:59:09.431Z,20.89
2023-02-23T22:01:40.540Z,20.88
2023-02-23T22:04:12.535Z,20.85
2023-02-23T22:06:44.670Z,20.82
2023-02-23T22:09:16.502Z,20.80
2023-02-23T22:11:48.088Z,20.77
2023-02-23T22:14:20.186Z,20.76
2023-02-23T22:16:50.582Z,20.74
2023-02-23T22:19:19.692Z,20.71
2023-02-23T22:21:51.317Z,20.71
2023-02-23T22:24:19.934Z,20.69
2023-02-23T22:26:55.372Z,20.66
2023-02-23T22:29:26.086Z,20.64
2023-02-23T22:31:54.621Z,20.61
2023-02-23T22:34:23.448Z,20.58
2023-02-23T22:36:51.946Z,20.57
2023-02-23T22:39:20.885Z,20.55
2023-02-23T22:41:49.980Z,20.52
2023-02-23T22:44:23.523Z,20.49
2023-02-23T22:46:53.103Z,20.48
2023-02-23T22:49:21.517Z,20.46
2023-02-23T22:51:51.350Z,20.46
2023-02-23T22:54:21.320Z,20.44
2023-02-23T22:56:49.933Z,20.42
2023-02-23T22:59:21.259Z,20.41
2023-02-23T23:01:51.139Z,20.40
2023-02-23T23:04:22.826Z,20.37
2023-02-23T23:06:51.610Z,20.35
2023-02-23T23:09:22.010Z,20.35
2023-02-23T23:11:51.810Z,20.33
2023-02-23T23:14:20.648Z,20.31
2023-02-23T23:16:49.057Z,20.29
2023-02-23T23:19:26.902Z,20.29
2023-02-23T23:21:56.470Z,20.27
2023-02-23T23:24:26.102Z,20.25
2023-02-23T23:27:01.215Z,20.24
2023-02-23T23:29:31.405Z,20.24
2023-02-23T23:32:01.953Z,20.24
2023-02-23T23:34:34.348Z,20.23
2023-02-23T23:37:03.682Z,20.23
2023-02-23T23:39:31.983Z,20.22
2023-02-23T23:42:02.705Z,20.22
2023-02-23T23:44:31.028Z,20.21
2023-02-23T23:46:59.552Z,20.21
2023-02-23T23:49:27.894Z,20.21
2023-02-23T23:51:57.545Z,20.22
2023-02-23T23:54:34.272Z,20.23
2023-02-23T23:57:02.882Z,20.23
2023-02-23T23:59:32.798Z,20.26
